createdAt,value
2023-03-26T00:02:59.648Z,70.99
2023-03-26T00:06:52.542Z,71.62
2023-03-26T00:10:45.631Z,71.67
2023-03-26T00:14:38.862Z,71.64
2023-03-26T00:18:32.238Z,71.83
2023-03-26T00:22:25.327Z,72.10
2023-03-26T00:26:19.042Z,72.07
2023-03-26T00:30:12.952Z,72.53
2023-03-26T00:34:06.087Z,72.13
2023-03-26T00:37:58.788Z,72.50
2023-03-26T00:41:54.797Z,72.17
2023-03-26T00:45:53.476Z,72.56
2023-03-26T00:49:49.026Z,72.30
2023-03-26T00:53:42.615Z,72.38
2023-03-26T00:57:37.490Z,72.42
2023-03-26T01:01:30.774Z,72.64
2023-03-26T01:05:34.248Z,72.15
2023-03-26T01:09:35.561Z,71.75
2023-03-26T01:13:32.005Z,71.98
2023-03-26T01:17:25.075Z,72.10
2023-03-26T01:21:22.921Z,71.57
2023-03-26T01:25:15.931Z,72.05
2023-03-26T01:29:19.034Z,71.58
2023-03-26T01:33:30.431Z,71.35
2023-03-26T01:37:30.760Z,71.29
2023-03-26T01:41:46.511Z,71.09
2023-03-26T01:45:42.195Z,70.68
2023-03-26T01:49:35.849Z,70.56
2023-03-26T01:53:29.430Z,70.82
2023-03-26T01:57:24.769Z,70.34
2023-03-26T02:01:30.562Z,70.39
2023-03-26T02:05:38.157Z,70.79
2023-03-26T02:09:36.494Z,70.48
2023-03-26T02:13:29.305Z,70.74
2023-03-26T02:17:24.585Z,71.06
2023-03-26T02:21:21.518Z,71.41
2023-03-26T02:25:17.109Z,71.73
2023-03-26T02:29:10.964Z,70.92
2023-03-26T02:33:03.813Z,71.34
2023-03-26T02:36:57.475Z,71.14
2023-03-26T02:40:50.169Z,70.64
2023-03-26T02:44:43.100Z,70.55
2023-03-26T02:48:35.813Z,70.03
2023-03-26T02:52:28.482Z,70.60
2023-03-26T02:56:21.496Z,70.49
2023-03-26T03:00:17.261Z,70.67
2023-03-26T03:04:12.228Z,70.63
2023-03-26T03:08:06.188Z,70.49
2023-03-26T03:11:59.050Z,69.68
2023-03-26T03:15:52.081Z,69.15
2023-03-26T03:19:45.590Z,69.02
2023-03-26T03:23:38.334Z,69.02
2023-03-26T03:27:30.888Z,69.08
2023-03-26T03:31:26.410Z,68.98
2023-03-26T03:35:19.421Z,68.52
2023-03-26T03:39:12.108Z,68.60
2023-03-26T03:43:05.170Z,68.98
2023-03-26T03:46:57.968Z,68.97
2023-03-26T03:50:51.187Z,69.01
2023-03-26T03:54:44.009Z,69.19
2023-03-26T03:58:36.867Z,69.38
2023-03-26T04:02:35.155Z,69.54
2023-03-26T04:06:30.425Z,69.03
2023-03-26T04:10:23.115Z,69.24
2023-03-26T04:14:16.027Z,69.14
2023-03-26T04:18:11.868Z,68.86
2023-03-26T04:22:04.670Z,69.11
2023-03-26T04:26:04.390Z,69.17
2023-03-26T04:29:58.552Z,69.12
2023-03-26T04:33:56.556Z,68.33
2023-03-26T04:37:49.273Z,67.53
2023-03-26T04:41:42.270Z,67.59
2023-03-26T04:45:35.039Z,67.48
2023-03-26T04:49:27.830Z,67.00
2023-03-26T04:53:21.590Z,67.67
2023-03-26T04:57:28.178Z,66.54
2023-03-26T05:01:22.198Z,66.51
2023-03-26T05:05:15.175Z,67.35
2023-03-26T05:09:08.885Z,66.97
2023-03-26T05:13:01.748Z,66.52
2023-03-26T05:16:54.481Z,65.99
2023-03-26T05:20:47.751Z,65.87
2023-03-26T05:24:41.070Z,65.10
2023-03-26T05:28:33.794Z,65.02
2023-03-26T05:32:26.735Z,64.26
2023-03-26T05:36:19.710Z,64.17
2023-03-26T05:40:17.280Z,63.72
2023-03-26T05:44:10.659Z,64.01
2023-03-26T05:48:03.218Z,64.26
2023-03-26T05:51:55.997Z,64.02
2023-03-26T05:55:58.646Z,64.47
2023-03-26T05:59:52.764Z,64.51
2023-03-26T06:03:46.596Z,63.47
2023-03-26T06:07:42.206Z,59.08
2023-03-26T06:11:35.786Z,54.40
2023-03-26T06:15:28.797Z,56.50
2023-03-26T06:19:21.819Z,58.39
2023-03-26T06:23:15.108Z,59.21
2023-03-26T06:27:08.072Z,61.00
2023-03-26T06:31:04.429Z,60.70
2023-03-26T06:34:57.754Z,60.06
2023-03-26T06:38:50.824Z,56.02
2023-03-26T06:43:08.134Z,54.29
2023-03-26T06:46:57.193Z,52.54
2023-03-26T06:50:52.039Z,51.38
2023-03-26T06:54:45.734Z,50.69
2023-03-26T06:58:40.135Z,49.48
2023-03-26T07:02:33.744Z,49.10
2023-03-26T07:06:28.773Z,47.56
2023-03-26T07:10:22.683Z,46.83
2023-03-26T07:14:16.155Z,47.09
2023-03-26T07:18:09.456Z,48.70
2023-03-26T07:22:03.386Z,49.49
2023-03-26T07:25:56.968Z,49.60
2023-03-26T07:29:58.342Z,51.38
2023-03-26T07:33:54.539Z,52.14
2023-03-26T07:38:17.213Z,52.69
2023-03-26T07:42:47.923Z,54.71
2023-03-26T07:46:42.388Z,55.33
2023-03-26T07:50:35.950Z,55.81
2023-03-26T07:54:29.393Z,56.15
2023-03-26T07:58:49.638Z,55.36
2023-03-26T08:03:03.100Z,55.36
2023-03-26T08:07:39.709Z,56.44
2023-03-26T08:11:44.903Z,56.09
2023-03-26T08:15:48.394Z,55.97
2023-03-26T08:19:49.549Z,56.61
2023-03-26T08:23:50.935Z,56.66
2023-03-26T08:32:09.881Z,54.69
2023-03-26T08:36:03.969Z,54.06
2023-03-26T08:39:57.611Z,54.96
2023-03-26T08:44:00.323Z,55.35
2023-03-26T08:48:11.237Z,55.27
2023-03-26T08:52:45.676Z,55.64
2023-03-26T08:56:47.843Z,54.94
2023-03-26T09:00:59.882Z,56.19
2023-03-26T09:05:23.390Z,56.50
2023-03-26T09:09:34.429Z,55.73
2023-03-26T09:13:51.151Z,55.98
2023-03-26T09:18:06.101Z,56.07
2023-03-26T09:21:58.728Z,55.29
2023-03-26T09:26:17.569Z,55.36
2023-03-26T09:30:36.459Z,55.15
2023-03-26T09:34:30.661Z,55.17
2023-03-26T09:38:35.582Z,55.64
2023-03-26T09:42:56.612Z,55.19
2023-03-26T09:47:20.147Z,55.64
2023-03-26T09:51:44.157Z,55.12
2023-03-26T09:55:49.270Z,56.90
2023-03-26T10:00:10.063Z,55.35
2023-03-26T10:18:31.522Z,53.97
2023-03-26T10:22:50.405Z,52.55
2023-03-26T10:27:10.279Z,53.08
2023-03-26T10:31:17.004Z,53.19
2023-03-26T10:40:18.345Z,52.24
2023-03-26T10:45:01.423Z,51.33
2023-03-26T10:49:28.981Z,52.16
2023-03-26T10:53:42.266Z,51.21
2023-03-26T11:44:16.348Z,47.26
2023-03-26T11:48:35.611Z,46.24
2023-03-26T11:57:04.457Z,44.65
2023-03-26T12:01:05.729Z,44.09
2023-03-26T12:05:18.943Z,43.45
2023-03-26T12:09:20.862Z,43.37
2023-03-26T12:13:36.164Z,43.82
2023-03-26T12:17:37.603Z,43.59
2023-03-26T12:21:30.720Z,43.75
2023-03-26T12:25:38.971Z,42.95
2023-03-26T12:29:34.932Z,43.21
2023-03-26T12:33:35.802Z,43.08
2023-03-26T12:37:38.895Z,43.10
2023-03-26T12:44:47.535Z,42.06
2023-03-26T12:47:56.370Z,43.02
2023-03-26T12:50:14.930Z,42.43
2023-03-26T12:54:33.559Z,43.95
2023-03-26T12:58:55.109Z,42.32
2023-03-26T13:03:01.295Z,42.43
2023-03-26T13:07:22.905Z,43.09
2023-03-26T13:12:06.549Z,41.94
2023-03-26T13:16:31.884Z,42.43
2023-03-26T13:20:51.918Z,42.02
2023-03-26T13:25:33.398Z,42.09
2023-03-26T13:29:32.587Z,41.83
2023-03-26T13:33:45.169Z,42.20
2023-03-26T13:37:49.910Z,42.58
2023-03-26T13:42:07.813Z,41.43
2023-03-26T13:46:36.270Z,42.13
2023-03-26T13:50:38.085Z,42.54
2023-03-26T13:54:37.238Z,41.66
2023-03-26T13:58:38.946Z,42.80
2023-03-26T14:02:57.576Z,42.11
2023-03-26T14:07:26.594Z,41.90
2023-03-26T14:11:46.493Z,41.50
2023-03-26T14:16:03.720Z,42.61
2023-03-26T14:20:21.910Z,39.96
2023-03-26T14:24:30.802Z,40.18
2023-03-26T14:28:57.307Z,41.06
2023-03-26T14:33:06.167Z,40.90
2023-03-26T14:37:27.758Z,40.90
2023-03-26T14:41:59.681Z,40.20
2023-03-26T14:46:08.050Z,40.70
2023-03-26T14:50:20.561Z,40.74
2023-03-26T14:54:19.404Z,39.89
2023-03-26T14:58:30.564Z,39.51
2023-03-26T15:02:39.739Z,39.92
2023-03-26T15:07:00.582Z,39.07
2023-03-26T15:11:35.691Z,38.44
2023-03-26T15:15:58.204Z,38.60
2023-03-26T15:20:07.972Z,39.00
2023-03-26T15:24:28.271Z,38.64
2023-03-26T15:28:39.989Z,39.46
2023-03-26T15:33:00.671Z,39.82
2023-03-26T15:37:06.029Z,40.72
2023-03-26T15:41:24.834Z,40.13
2023-03-26T15:45:37.272Z,40.24
2023-03-26T15:49:40.568Z,40.04
2023-03-26T15:53:52.022Z,40.73
2023-03-26T15:58:22.172Z,41.21
2023-03-26T16:02:21.847Z,41.28
2023-03-26T16:06:34.668Z,41.89
2023-03-26T16:10:41.689Z,41.97
2023-03-26T16:14:35.857Z,42.92
2023-03-26T16:18:37.647Z,42.69
2023-03-26T16:23:05.152Z,42.97
2023-03-26T16:27:08.424Z,43.28
2023-03-26T16:31:38.179Z,44.03
2023-03-26T16:35:39.387Z,44.14
2023-03-26T16:39:41.462Z,44.50
2023-03-26T16:43:52.790Z,44.80
2023-03-26T16:47:55.554Z,45.40
2023-03-26T16:52:08.640Z,45.47
2023-03-26T16:56:18.211Z,45.83
2023-03-26T17:00:17.100Z,46.37
2023-03-26T17:04:22.100Z,47.24
2023-03-26T17:08:39.765Z,46.99
2023-03-26T17:13:04.886Z,47.35
2023-03-26T17:17:38.864Z,48.37
2023-03-26T17:21:47.045Z,48.35
2023-03-26T17:26:03.550Z,49.56
2023-03-26T17:30:05.555Z,50.67
2023-03-26T17:34:47.572Z,51.19
2023-03-26T17:38:45.231Z,51.55
2023-03-26T17:42:39.274Z,49.50
2023-03-26T17:46:40.195Z,49.31
2023-03-26T17:50:42.705Z,48.79
2023-03-26T17:54:47.961Z,48.84
2023-03-26T18:03:17.801Z,48.69
2023-03-26T18:07:14.364Z,48.86
2023-03-26T18:11:26.494Z,48.70
2023-03-26T18:15:28.424Z,48.66
2023-03-26T18:19:24.812Z,48.94
2023-03-26T18:23:30.509Z,48.98
2023-03-26T18:27:25.703Z,48.93
2023-03-26T18:31:27.739Z,48.20
2023-03-26T18:35:23.973Z,48.38
2023-03-26T18:39:20.330Z,48.22
2023-03-26T18:43:32.543Z,48.47
2023-03-26T18:47:31.642Z,48.53
2023-03-26T18:51:28.919Z,48.71
2023-03-26T18:55:29.121Z,49.07
2023-03-26T18:59:31.609Z,49.42
2023-03-26T19:03:26.332Z,49.00
2023-03-26T19:07:26.458Z,49.03
2023-03-26T19:11:24.882Z,49.51
2023-03-26T19:15:21.882Z,49.62
2023-03-26T19:19:21.746Z,49.90
2023-03-26T19:23:23.780Z,50.16
2023-03-26T19:27:19.196Z,50.59
2023-03-26T19:31:17.115Z,50.76
2023-03-26T19:35:26.642Z,50.83
2023-03-26T19:39:36.507Z,50.85
2023-03-26T19:43:34.010Z,50.99
2023-03-26T19:51:38.634Z,51.87
2023-03-26T19:55:32.718Z,51.46
2023-03-26T19:59:26.406Z,51.56
2023-03-26T20:03:31.987Z,51.81
2023-03-26T20:07:35.347Z,51.94
2023-03-26T20:11:34.268Z,52.28
2023-03-26T20:15:32.814Z,52.16
2023-03-26T20:19:26.814Z,51.95
2023-03-26T20:23:20.649Z,53.02
2023-03-26T20:27:15.375Z,57.39
2023-03-26T20:31:17.530Z,59.37
2023-03-26T20:35:35.868Z,64.85
2023-03-26T20:39:29.652Z,68.30
2023-03-26T20:43:25.437Z,69.36
2023-03-26T20:47:18.503Z,69.70
2023-03-26T20:51:16.439Z,70.00
2023-03-26T20:55:13.901Z,71.40
2023-03-26T20:59:11.084Z,72.81
2023-03-26T21:03:04.834Z,74.75
2023-03-26T21:07:07.228Z,75.81
2023-03-26T21:11:29.253Z,77.40
2023-03-26T21:15:23.930Z,79.63
2023-03-26T21:19:17.230Z,79.31
2023-03-26T21:23:30.859Z,78.87
2023-03-26T21:27:28.730Z,77.94
2023-03-26T21:31:24.532Z,77.67
2023-03-26T21:35:18.589Z,75.40
2023-03-26T21:39:11.704Z,78.67
2023-03-26T21:43:05.276Z,78.60
2023-03-26T21:46:58.147Z,81.47
2023-03-26T21:50:51.206Z,80.36
2023-03-26T21:54:44.382Z,76.96
2023-03-26T21:58:46.272Z,78.29
2023-03-26T22:02:44.109Z,80.47
2023-03-26T22:06:51.051Z,80.78
2023-03-26T22:10:43.939Z,81.22
2023-03-26T22:14:37.277Z,82.74
2023-03-26T22:18:30.387Z,83.69
2023-03-26T22:22:26.363Z,80.78
2023-03-26T22:26:22.027Z,74.78
2023-03-26T22:30:15.728Z,73.29
2023-03-26T22:34:09.052Z,73.82
2023-03-26T22:38:01.729Z,72.46
2023-03-26T22:41:56.725Z,74.49
2023-03-26T22:45:50.998Z,73.71
2023-03-26T22:49:44.535Z,74.29
2023-03-26T22:53:37.292Z,71.29
2023-03-26T22:57:29.809Z,74.27
2023-03-26T23:01:25.048Z,73.01
2023-03-26T23:05:18.108Z,74.68
2023-03-26T23:09:10.917Z,75.29
2023-03-26T23:13:03.457Z,75.78
2023-03-26T23:16:57.409Z,73.46
2023-03-26T23:20:55.701Z,76.08
2023-03-26T23:24:48.628Z,77.73
2023-03-26T23:28:41.738Z,79.33
2023-03-26T23:32:38.546Z,78.39
2023-03-26T23:36:31.281Z,77.64
2023-03-26T23:40:24.638Z,77.68
2023-03-26T23:44:17.340Z,78.41
2023-03-26T23:48:10.167Z,76.11
2023-03-26T23:52:07.061Z,76.92
2023-03-26T23:55:59.784Z,74.49
2023-03-26T23:59:52.582Z,75.85
